Time;durP1;ratioP1;P1;durP2;ratioP2;P2;SDS_P1;SDS_P2;PMS_P1;PMS_P2;Temp;Humidity;BMP_temperature;BMP_pressure;BME280_temperature;BME280_humidity;BME280_pressure;Samples;Min_cycle;Max_cycle;Signal;HPM_P1;HPM_P2
2021/08/24 00:00:19;;;;;;;0.93;0.90;;;15.90;94.90;;;;;;5033297;28;20120;-79
2021/08/24 00:02:44;;;;;;;1.13;1.00;;;15.80;94.90;;;;;;5033208;28;20052;-77
2021/08/24 00:05:12;;;;;;;1.30;1.00;;;15.80;94.90;;;;;;5033217;28;20021;-79
2021/08/24 00:07:38;;;;;;;1.30;0.90;;;15.80;94.90;;;;;;5032660;28;20037;-77
2021/08/24 00:10:07;;;;;;;1.15;0.77;;;15.80;94.90;;;;;;5033188;28;20052;-78
2021/08/24 00:12:32;;;;;;;0.85;0.85;;;15.80;94.90;;;;;;5033221;28;20086;-78
2021/08/24 00:14:58;;;;;;;1.27;1.02;;;15.80;94.90;;;;;;5033339;28;20014;-77
2021/08/24 00:17:24;;;;;;;1.02;0.80;;;15.70;94.80;;;;;;5033176;28;20425;-77
2021/08/24 00:19:49;;;;;;;1.45;1.10;;;15.70;94.80;;;;;;5014927;28;20109;-79
2021/08/24 00:22:15;;;;;;;1.50;1.30;;;15.70;94.80;;;;;;5032972;28;20386;-78
2021/08/24 00:24:40;;;;;;;0.95;0.95;;;15.70;94.90;;;;;;5033148;28;20470;-78
2021/08/24 00:27:06;;;;;;;1.60;0.95;;;15.70;94.90;;;;;;5032949;28;20061;-79
2021/08/24 00:29:32;;;;;;;1.48;0.95;;;15.70;94.90;;;;;;5033025;28;20072;-77
2021/08/24 00:31:57;;;;;;;1.13;1.02;;;15.70;94.90;;;;;;5033130;28;20044;-77
2021/08/24 00:34:23;;;;;;;1.25;0.98;;;15.70;94.90;;;;;;5032764;28;20474;-78
2021/08/24 00:36:49;;;;;;;0.80;0.73;;;15.70;94.80;;;;;;5033022;28;20506;-77
2021/08/24 00:39:14;;;;;;;1.17;0.98;;;15.70;94.80;;;;;;5032950;28;20022;-78
2021/08/24 00:41:40;;;;;;;1.67;1.15;;;15.60;94.80;;;;;;5033151;28;20029;-77
2021/08/24 00:44:07;;;;;;;1.25;1.15;;;15.60;94.80;;;;;;5032836;28;20022;-78
2021/08/24 00:46:50;;;;;;;1.33;0.85;;;15.60;94.80;;;;;;5032965;28;20025;-78
2021/08/24 00:49:26;;;;;;;1.25;1.00;;;15.60;94.70;;;;;;5014814;28;20061;-78
2021/08/24 00:52:00;;;;;;;0.65;0.65;;;15.50;94.70;;;;;;5033035;28;20129;-77
2021/08/24 00:54:27;;;;;;;0.90;0.80;;;15.50;94.70;;;;;;5032846;28;20026;-79
2021/08/24 00:57:00;;;;;;;1.75;1.02;;;15.50;94.70;;;;;;5032982;28;20021;-78
2021/08/24 00:59:27;;;;;;;0.77;0.77;;;15.50;94.70;;;;;;5032943;28;20025;-77
2021/08/24 01:01:53;;;;;;;0.85;0.85;;;15.40;94.70;;;;;;5032705;28;20053;-78
2021/08/24 01:04:21;;;;;;;1.00;0.68;;;15.40;94.70;;;;;;5032365;28;20037;-78
2021/08/24 01:06:55;;;;;;;1.10;1.00;;;15.40;94.70;;;;;;5032609;28;20033;-78
2021/08/24 01:09:49;;;;;;;1.23;0.80;;;15.30;94.50;;;;;;5032914;28;20031;-77
2021/08/24 01:12:43;;;;;;;0.65;0.65;;;15.30;94.60;;;;;;5032738;28;20029;-78
2021/08/24 01:15:37;;;;;;;0.75;0.75;;;15.30;94.60;;;;;;5032894;28;20167;-78
2021/08/24 01:18:10;;;;;;;1.23;0.90;;;15.30;94.60;;;;;;5014397;28;20029;-79
2021/08/24 01:21:08;;;;;;;1.10;0.90;;;15.20;94.70;;;;;;5032468;28;20401;-78
2021/08/24 01:23:57;;;;;;;1.33;1.00;;;15.30;94.70;;;;;;5010661;28;20033;-78
2021/08/24 01:26:41;;;;;;;1.10;1.00;;;15.20;94.70;;;;;;5035770;28;20068;-78
2021/08/24 01:29:31;;;;;;;1.33;1.00;;;15.20;94.70;;;;;;5036060;28;20075;-79
2021/08/24 01:32:03;;;;;;;0.70;0.70;;;15.20;94.80;;;;;;5036253;28;20029;-77
2021/08/24 01:35:06;;;;;;;1.45;0.90;;;15.20;94.90;;;;;;5036055;28;20429;-77
2021/08/24 01:38:06;;;;;;;1.15;1.02;;;15.20;94.80;;;;;;5036534;28;20071;-77
2021/08/24 01:40:38;;;;;;;1.10;1.00;;;15.10;94.80;;;;;;5036036;28;20076;-78
2021/08/24 01:43:06;;;;;;;1.42;1.33;;;15.10;94.90;;;;;;5036569;28;20025;-77
2021/08/24 01:45:42;;;;;;;1.00;0.90;;;15.10;94.90;;;;;;5018012;28;20026;-77
2021/08/24 01:48:22;;;;;;;1.75;1.38;;;15.10;94.90;;;;;;5035245;28;20038;-78
2021/08/24 01:50:57;;;;;;;1.60;1.30;;;15.10;95.00;;;;;;5035856;28;20017;-77
2021/08/24 01:53:35;;;;;;;1.20;1.10;;;15.00;95.00;;;;;;5035921;28;20021;-78
2021/08/24 01:56:10;;;;;;;1.83;1.13;;;15.00;94.90;;;;;;5035686;28;20084;-77
2021/08/24 01:58:48;;;;;;;1.42;0.80;;;15.00;94.90;;;;;;5035440;28;20028;-78
2021/08/24 02:01:19;;;;;;;2.50;1.40;;;15.00;94.90;;;;;;5035553;28;20055;-78
2021/08/24 02:03:59;;;;;;;1.88;1.10;;;14.90;94.90;;;;;;5035346;28;20071;-77
2021/08/24 02:06:37;;;;;;;1.23;1.13;;;14.90;94.90;;;;;;5017558;28;20097;-76
2021/08/24 02:09:18;;;;;;;1.45;1.10;;;14.90;94.90;;;;;;5017866;28;20026;-77
2021/08/24 02:11:44;;;;;;;1.20;1.10;;;14.90;94.80;;;;;;5035175;28;20049;-78
2021/08/24 02:14:14;;;;;;;1.27;1.17;;;14.90;94.90;;;;;;5035247;28;20124;-78
2021/08/24 02:16:41;;;;;;;2.05;1.25;;;14.90;94.80;;;;;;5034851;28;20368;-76
2021/08/24 02:19:12;;;;;;;1.63;1.40;;;14.80;94.80;;;;;;5035169;28;20026;-78
2021/08/24 02:21:57;;;;;;;1.48;1.33;;;14.80;94.80;;;;;;5035381;28;20351;-78
2021/08/24 02:24:34;;;;;;;1.48;1.20;;;14.80;94.80;;;;;;5035259;28;20037;-76
2021/08/24 02:27:04;;;;;;;1.23;1.13;;;14.80;94.80;;;;;;5035252;28;20056;-77
2021/08/24 02:29:30;;;;;;;2.25;1.40;;;14.70;94.80;;;;;;5034870;28;20026;-78
2021/08/24 02:32:08;;;;;;;1.48;1.25;;;14.70;94.90;;;;;;5034479;28;20036;-77
2021/08/24 02:34:51;;;;;;;2.08;1.73;;;14.70;94.80;;;;;;5035033;28;20036;-78
2021/08/24 02:37:20;;;;;;;1.60;1.25;;;14.70;94.90;;;;;;5034065;28;20045;-76
2021/08/24 02:39:54;;;;;;;1.20;1.00;;;14.70;94.90;;;;;;5034674;28;20025;-77
2021/08/24 02:42:31;;;;;;;1.65;1.10;;;14.70;95.00;;;;;;5034652;28;20425;-78
2021/08/24 02:45:09;;;;;;;1.25;1.10;;;14.70;94.90;;;;;;5034207;28;20493;-78
2021/08/24 02:47:38;;;;;;;1.52;1.00;;;14.70;94.90;;;;;;5034652;28;20481;-77
2021/08/24 02:50:07;;;;;;;2.90;1.50;;;14.70;95.00;;;;;;5034679;28;20021;-77
2021/08/24 02:52:34;;;;;;;1.50;1.30;;;14.70;95.00;;;;;;5034554;28;20080;-78
2021/08/24 02:55:01;;;;;;;1.73;1.20;;;14.60;95.10;;;;;;5034576;28;20028;-78
2021/08/24 02:57:27;;;;;;;1.88;1.50;;;14.60;95.10;;;;;;5034507;28;20022;-78
2021/08/24 02:59:52;;;;;;;2.80;1.80;;;14.60;95.10;;;;;;5034070;28;20378;-77
2021/08/24 03:02:18;;;;;;;2.35;1.38;;;14.60;95.10;;;;;;5016402;28;20498;-77
2021/08/24 03:04:44;;;;;;;2.08;1.40;;;14.60;95.10;;;;;;5034411;28;20100;-77
2021/08/24 03:07:15;;;;;;;2.00;1.40;;;14.60;95.10;;;;;;5034259;28;20068;-78
2021/08/24 03:09:42;;;;;;;2.97;1.90;;;14.60;95.10;;;;;;5034450;28;20029;-78
2021/08/24 03:12:11;;;;;;;3.15;1.75;;;14.50;95.10;;;;;;5034195;28;20032;-79
2021/08/24 03:15:08;;;;;;;3.28;2.58;;;14.50;95.10;;;;;;5033714;28;20029;-78
2021/08/24 03:17:46;;;;;;;1.77;1.50;;;14.50;95.10;;;;;;5034050;28;20025;-78
2021/08/24 03:20:13;;;;;;;1.85;1.70;;;14.50;95.20;;;;;;5034072;28;20057;-77
2021/08/24 03:22:40;;;;;;;2.20;1.80;;;14.50;95.20;;;;;;5034174;28;20021;-78
2021/08/24 03:25:07;;;;;;;2.35;1.40;;;14.50;95.20;;;;;;5033790;28;20025;-78
2021/08/24 03:27:38;;;;;;;3.67;2.15;;;14.50;95.20;;;;;;5033742;28;20420;-78
2021/08/24 03:30:09;;;;;;;1.92;1.67;;;14.50;95.20;;;;;;5033299;28;20036;-77
2021/08/24 03:32:37;;;;;;;3.40;2.10;;;14.40;95.20;;;;;;5034116;28;20061;-77
2021/08/24 03:35:04;;;;;;;2.33;1.77;;;14.40;95.30;;;;;;5033834;28;20571;-77
2021/08/24 03:37:29;;;;;;;3.88;1.90;;;14.40;95.30;;;;;;5033777;28;20029;-77
2021/08/24 03:39:55;;;;;;;2.50;1.60;;;14.40;95.30;;;;;;5033626;28;20493;-78
2021/08/24 03:42:20;;;;;;;2.65;2.00;;;14.40;95.30;;;;;;5033763;28;20494;-77
2021/08/24 03:44:46;;;;;;;2.60;1.70;;;14.40;95.20;;;;;;5033475;28;20022;-78
2021/08/24 03:47:14;;;;;;;2.35;2.00;;;14.40;95.20;;;;;;5033323;28;20037;-77
2021/08/24 03:49:40;;;;;;;2.30;1.70;;;14.40;95.20;;;;;;5015811;28;20160;-78
2021/08/24 03:52:08;;;;;;;3.72;2.22;;;14.40;95.20;;;;;;5033649;28;20075;-77
2021/08/24 03:54:34;;;;;;;3.03;2.00;;;14.40;95.20;;;;;;5033480;28;20112;-77
2021/08/24 03:56:59;;;;;;;3.25;2.03;;;14.40;95.20;;;;;;5015702;28;20104;-78
2021/08/24 03:59:25;;;;;;;3.80;2.13;;;14.40;95.20;;;;;;5032878;28;20025;-79
2021/08/24 04:01:51;;;;;;;2.95;1.98;;;14.40;95.20;;;;;;5033289;28;20042;-78
2021/08/24 04:04:16;;;;;;;2.97;1.95;;;14.40;95.20;;;;;;5033414;28;20040;-77
2021/08/24 04:06:42;;;;;;;3.42;2.17;;;14.40;95.20;;;;;;5033441;28;20021;-78
2021/08/24 04:09:08;;;;;;;2.45;1.42;;;14.40;95.10;;;;;;5033293;28;20536;-78
2021/08/24 04:11:33;;;;;;;3.42;1.92;;;14.50;95.10;;;;;;5033272;28;20524;-79
2021/08/24 04:13:59;;;;;;;3.67;1.95;;;14.40;95.10;;;;;;5032688;28;20025;-77
2021/08/24 04:16:25;;;;;;;3.08;1.92;;;14.40;95.10;;;;;;5033056;28;20022;-77
2021/08/24 04:18:50;;;;;;;2.38;1.80;;;14.40;95.10;;;;;;5033272;28;20496;-78
2021/08/24 04:21:17;;;;;;;2.92;2.00;;;14.40;95.10;;;;;;5033229;28;20022;-78
2021/08/24 04:23:44;;;;;;;4.18;2.47;;;14.40;95.10;;;;;;5015697;28;20048;-76
2021/08/24 04:26:11;;;;;;;2.30;2.10;;;14.40;95.10;;;;;;5033103;28;20028;-77
2021/08/24 04:28:37;;;;;;;2.30;1.77;;;14.40;95.20;;;;;;5032640;28;20358;-77
2021/08/24 04:31:04;;;;;;;3.30;1.90;;;14.40;95.20;;;;;;5033103;28;20029;-78
2021/08/24 04:33:30;;;;;;;2.35;1.88;;;14.40;95.10;;;;;;5015353;28;20038;-77
2021/08/24 04:35:56;;;;;;;3.17;2.00;;;14.40;95.10;;;;;;5032994;28;20021;-78
2021/08/24 04:38:22;;;;;;;2.97;2.47;;;14.40;95.10;;;;;;5032943;28;20099;-77
2021/08/24 04:40:49;;;;;;;2.75;1.85;;;14.40;95.20;;;;;;5032960;28;20508;-78
2021/08/24 04:43:15;;;;;;;3.63;2.03;;;14.40;95.20;;;;;;5032980;28;20080;-77
2021/08/24 04:45:41;;;;;;;3.15;2.30;;;14.40;95.20;;;;;;5032972;28;20025;-77
2021/08/24 04:48:06;;;;;;;3.33;2.67;;;14.40;95.20;;;;;;5032856;28;20425;-76
2021/08/24 04:50:32;;;;;;;3.05;2.10;;;14.40;95.30;;;;;;5032895;28;20033;-77
2021/08/24 04:52:57;;;;;;;2.67;1.85;;;14.40;95.60;;;;;;5015386;28;20053;-78
2021/08/24 04:55:23;;;;;;;3.55;1.98;;;14.40;95.30;;;;;;5032176;28;20533;-77
2021/08/24 04:57:49;;;;;;;3.40;2.13;;;14.40;95.30;;;;;;5032954;28;20029;-77
2021/08/24 05:00:15;;;;;;;3.53;2.15;;;14.40;95.30;;;;;;5034621;28;20025;-78
2021/08/24 05:02:40;;;;;;;3.92;2.38;;;14.40;95.30;;;;;;5036434;28;20056;-77
2021/08/24 05:05:06;;;;;;;3.63;2.25;;;14.40;95.30;;;;;;5036653;28;20021;-78
2021/08/24 05:07:32;;;;;;;3.13;2.17;;;14.50;95.30;;;;;;5036360;28;20036;-77
2021/08/24 05:09:58;;;;;;;3.33;2.20;;;14.50;95.40;;;;;;5036265;28;20382;-78
2021/08/24 05:12:23;;;;;;;3.33;2.05;;;14.40;95.30;;;;;;5036466;28;20037;-78
2021/08/24 05:14:49;;;;;;;3.38;2.30;;;14.50;95.30;;;;;;5018816;28;20410;-77
2021/08/24 05:17:14;;;;;;;2.83;2.20;;;14.50;95.30;;;;;;5036299;28;20044;-78
2021/08/24 05:19:40;;;;;;;3.15;1.92;;;14.50;95.30;;;;;;5036209;28;20048;-77
2021/08/24 05:22:06;;;;;;;3.80;2.08;;;14.50;95.50;;;;;;5036337;28;20036;-78
2021/08/24 05:24:34;;;;;;;3.25;2.28;;;14.60;95.30;;;;;;5017955;28;20474;-78
2021/08/24 05:27:00;;;;;;;3.00;1.95;;;14.60;95.30;;;;;;5036074;28;20535;-77
2021/08/24 05:29:26;;;;;;;2.10;1.63;;;14.60;95.30;;;;;;5036113;28;20112;-79
2021/08/24 05:31:52;;;;;;;2.75;1.90;;;14.60;95.30;;;;;;5036119;28;20105;-78
2021/08/24 05:34:17;;;;;;;2.70;2.15;;;14.60;95.30;;;;;;5036094;28;20112;-77
2021/08/24 05:36:43;;;;;;;3.28;2.00;;;14.70;95.30;;;;;;5036009;28;20078;-78
2021/08/24 05:39:08;;;;;;;2.92;2.03;;;14.70;95.30;;;;;;5035626;28;20136;-78
2021/08/24 05:41:34;;;;;;;2.55;1.80;;;14.80;95.30;;;;;;5035890;28;20018;-78
2021/08/24 05:44:00;;;;;;;3.25;2.00;;;14.80;95.30;;;;;;5018161;28;20036;-78
2021/08/24 05:46:25;;;;;;;3.30;1.77;;;14.90;95.20;;;;;;5036019;28;20026;-79
2021/08/24 05:48:51;;;;;;;2.63;1.75;;;14.90;95.20;;;;;;5035658;28;20033;-78
2021/08/24 05:51:20;;;;;;;2.85;2.05;;;15.00;95.20;;;;;;5035850;28;20026;-78
2021/08/24 05:53:46;;;;;;;2.85;2.10;;;15.00;95.10;;;;;;5017426;28;20386;-79
2021/08/24 05:56:14;;;;;;;1.90;1.70;;;15.10;95.10;;;;;;5018027;28;20021;-79
2021/08/24 05:58:40;;;;;;;1.53;1.40;;;15.20;95.10;;;;;;5035788;28;20021;-78
2021/08/24 06:01:07;;;;;;;1.67;1.42;;;15.20;95.10;;;;;;5035688;28;20036;-80
2021/08/24 06:03:32;;;;;;;2.22;1.60;;;15.20;95.00;;;;;;5035438;28;20494;-77
2021/08/24 06:05:59;;;;;;;1.95;1.75;;;15.20;95.00;;;;;;5035439;28;20030;-78
2021/08/24 06:08:27;;;;;;;2.90;1.83;;;15.30;95.00;;;;;;5034839;28;20029;-77
2021/08/24 06:10:53;;;;;;;2.97;1.92;;;15.40;95.00;;;;;;5035181;28;20026;-77
2021/08/24 06:13:18;;;;;;;2.47;1.77;;;15.40;95.00;;;;;;5035383;28;20030;-77
2021/08/24 06:15:44;;;;;;;1.92;1.63;;;15.50;95.00;;;;;;5017490;28;20027;-78
2021/08/24 06:18:09;;;;;;;2.88;1.83;;;15.50;94.90;;;;;;5035202;28;20035;-78
2021/08/24 06:20:36;;;;;;;3.25;1.85;;;15.50;95.00;;;;;;5035082;28;20104;-77
2021/08/24 06:23:02;;;;;;;2.33;1.88;;;15.50;95.00;;;;;;5035181;28;20539;-77
2021/08/24 06:25:27;;;;;;;2.90;2.00;;;15.60;95.00;;;;;;5035114;28;20096;-76
2021/08/24 06:27:53;;;;;;;3.30;2.10;;;15.70;95.00;;;;;;5035028;28;20037;-77
2021/08/24 06:30:19;;;;;;;2.78;1.92;;;15.70;94.90;;;;;;5017241;28;20021;-76
2021/08/24 06:32:48;;;;;;;2.85;1.70;;;15.80;94.90;;;;;;5034833;28;20577;-77
2021/08/24 06:35:16;;;;;;;2.50;1.52;;;15.90;94.90;;;;;;5034927;28;20022;-77
2021/08/24 06:37:41;;;;;;;2.58;1.60;;;15.90;94.90;;;;;;5034506;28;20029;-76
2021/08/24 06:40:08;;;;;;;3.72;2.25;;;16.00;94.90;;;;;;5035010;28;20024;-77
2021/08/24 06:42:43;;;;;;;2.97;2.13;;;16.00;94.90;;;;;;5034666;28;20033;-76
2021/08/24 06:45:12;;;;;;;2.25;1.63;;;16.10;94.80;;;;;;5034715;28;20097;-78
2021/08/24 06:47:38;;;;;;;;;;;16.20;94.90;;;;;;5035034;28;20099;-78
2021/08/24 06:50:04;;;;;;;2.95;1.77;;;16.20;94.90;;;;;;5034646;28;20377;-76
2021/08/24 06:52:29;;;;;;;2.90;1.60;;;16.30;94.90;;;;;;5034158;28;20394;-77
2021/08/24 06:54:55;;;;;;;3.83;1.70;;;16.30;94.90;;;;;;5034444;28;20076;-77
2021/08/24 06:57:20;;;;;;;2.28;1.70;;;16.40;94.90;;;;;;5034702;28;20517;-77
2021/08/24 06:59:46;;;;;;;2.85;1.85;;;16.50;94.90;;;;;;5034478;28;20023;-74
2021/08/24 07:02:11;;;;;;;2.45;1.20;;;16.50;94.90;;;;;;5034240;28;20410;-75
2021/08/24 07:04:37;;;;;;;2.28;1.70;;;16.60;95.00;;;;;;5034321;28;20105;-76
2021/08/24 07:07:02;;;;;;;3.00;1.95;;;16.60;94.90;;;;;;5033802;28;20042;-77
2021/08/24 07:09:28;;;;;;;2.67;1.70;;;16.70;94.90;;;;;;5034298;28;20100;-76
2021/08/24 07:11:53;;;;;;;1.83;1.50;;;16.70;94.90;;;;;;5034077;28;20037;-75
2021/08/24 07:14:19;;;;;;;3.53;2.13;;;16.80;94.90;;;;;;5034326;28;20020;-76
2021/08/24 07:16:44;;;;;;;2.65;1.90;;;16.90;94.80;;;;;;5034287;28;20021;-75
2021/08/24 07:19:11;;;;;;;2.40;1.85;;;16.90;94.90;;;;;;5034445;28;20021;-77
2021/08/24 07:21:36;;;;;;;2.45;1.70;;;17.00;94.90;;;;;;5033568;28;20021;-75
2021/08/24 07:24:02;;;;;;;2.22;1.70;;;17.00;94.80;;;;;;5033438;28;20459;-76
2021/08/24 07:26:28;;;;;;;2.95;1.65;;;17.10;94.80;;;;;;5033938;28;20029;-76
2021/08/24 07:28:53;;;;;;;2.97;2.20;;;17.10;94.80;;;;;;5033907;28;20098;-77
2021/08/24 07:31:19;;;;;;;3.78;2.28;;;17.20;94.80;;;;;;5033923;28;20037;-76
2021/08/24 07:33:45;;;;;;;2.95;2.30;;;17.30;94.80;;;;;;5033852;28;20532;-76
2021/08/24 07:36:11;;;;;;;3.80;2.17;;;17.30;94.70;;;;;;5033329;28;20390;-75
2021/08/24 07:38:37;;;;;;;3.83;2.22;;;17.40;94.70;;;;;;5033851;28;20025;-77
2021/08/24 07:41:04;;;;;;;2.65;1.73;;;17.40;94.70;;;;;;5033692;28;20386;-76
2021/08/24 07:43:30;;;;;;;3.28;2.20;;;17.50;94.70;;;;;;5033706;28;20025;-76
2021/08/24 07:45:55;;;;;;;2.47;1.85;;;17.60;94.70;;;;;;5033601;28;20063;-77
2021/08/24 07:48:21;;;;;;;3.03;2.03;;;17.60;94.70;;;;;;5033665;28;20113;-76
2021/08/24 07:50:47;;;;;;;2.03;1.70;;;17.70;94.60;;;;;;5033152;28;20471;-76
2021/08/24 07:53:12;;;;;;;4.10;2.78;;;17.80;94.70;;;;;;5033490;28;20025;-77
2021/08/24 07:55:38;;;;;;;2.28;1.90;;;17.80;94.70;;;;;;5033510;28;20107;-78
2021/08/24 07:58:04;;;;;;;2.50;1.98;;;17.90;94.60;;;;;;5033450;28;20025;-76
2021/08/24 08:00:30;;;;;;;3.75;2.25;;;17.90;94.60;;;;;;5033458;28;20014;-77
2021/08/24 08:02:55;;;;;;;3.20;1.75;;;17.90;94.70;;;;;;5033158;28;20128;-77
2021/08/24 08:05:22;;;;;;;2.45;1.70;;;18.00;94.70;;;;;;5015046;28;20072;-77
2021/08/24 08:07:47;;;;;;;2.65;1.90;;;18.10;94.70;;;;;;5033360;28;20025;-77
2021/08/24 08:10:13;;;;;;;2.70;1.92;;;18.10;94.60;;;;;;5015528;28;20013;-77
2021/08/24 08:12:39;;;;;;;3.15;2.00;;;18.30;94.60;;;;;;5033387;28;20099;-77
2021/08/24 08:15:08;;;;;;;4.85;2.08;;;18.30;94.60;;;;;;5033201;28;20060;-76
2021/08/24 08:17:34;;;;;;;2.70;2.08;;;18.30;94.60;;;;;;5033252;28;20037;-77
2021/08/24 08:19:59;;;;;;;2.67;1.85;;;18.40;94.70;;;;;;5032509;28;20017;-76
2021/08/24 08:22:25;;;;;;;3.10;2.33;;;18.40;94.70;;;;;;5033297;28;20026;-76
2021/08/24 08:24:50;;;;;;;2.30;2.10;;;18.50;94.60;;;;;;5033183;28;20029;-77
2021/08/24 08:27:16;;;;;;;2.35;1.75;;;18.60;94.70;;;;;;5032950;28;20069;-76
2021/08/24 08:29:42;;;;;;;2.33;1.80;;;18.60;94.60;;;;;;5033189;28;20021;-75
2021/08/24 08:32:13;;;;;;;2.45;1.83;;;18.70;94.60;;;;;;5032794;28;20114;-76
2021/08/24 08:34:39;;;;;;;2.20;1.80;;;18.80;94.60;;;;;;5033459;28;20020;-75
2021/08/24 08:37:07;;;;;;;2.42;1.63;;;18.80;94.60;;;;;;5037237;28;20021;-77
2021/08/24 08:39:33;;;;;;;2.17;1.73;;;18.90;94.60;;;;;;5037127;28;20033;-77
2021/08/24 08:42:30;;;;;;;1.85;1.63;;;19.00;94.60;;;;;;5037583;28;20362;-76
2021/08/24 08:45:17;;;;;;;1.40;1.27;;;19.10;94.50;;;;;;5037115;28;20079;-77
2021/08/24 08:48:04;;;;;;;3.53;1.77;;;19.20;94.40;;;;;;5036547;28;20478;-77
2021/08/24 08:50:40;;;;;;;1.45;1.35;;;19.30;94.40;;;;;;5036871;28;20037;-76
2021/08/24 08:53:12;;;;;;;1.33;1.17;;;19.30;94.40;;;;;;5018995;28;20044;-76
2021/08/24 08:55:43;;;;;;;1.60;1.38;;;19.40;94.40;;;;;;5036772;28;20091;-77
2021/08/24 08:58:35;;;;;;;2.03;1.30;;;19.40;94.30;;;;;;5036770;28;20029;-76
2021/08/24 09:01:08;;;;;;;1.42;1.33;;;19.50;94.30;;;;;;5036702;28;20033;-77
2021/08/24 09:04:03;;;;;;;1.25;1.10;;;19.50;94.40;;;;;;5018363;28;20091;-77
2021/08/24 09:06:28;;;;;;;1.40;1.30;;;19.60;94.30;;;;;;5018685;28;20457;-76
2021/08/24 09:08:57;;;;;;;2.08;1.70;;;19.70;94.40;;;;;;5036481;28;20065;-77
2021/08/24 09:11:31;;;;;;;1.05;1.00;;;19.80;94.40;;;;;;5036567;28;20026;-77
2021/08/24 09:14:17;;;;;;;1.40;1.30;;;19.90;94.30;;;;;;5018750;28;20112;-76
2021/08/24 09:16:51;;;;;;;1.45;1.27;;;20.00;94.30;;;;;;5018208;28;20060;-78
2021/08/24 09:19:24;;;;;;;1.42;1.25;;;20.10;94.20;;;;;;5036414;28;20052;-75
2021/08/24 09:21:50;;;;;;;1.30;1.15;;;20.10;94.30;;;;;;5036345;28;20373;-78
2021/08/24 09:24:19;;;;;;;1.10;1.10;;;20.20;94.30;;;;;;5036263;28;20025;-78
2021/08/24 09:26:59;;;;;;;1.30;1.15;;;20.30;94.30;;;;;;5036284;28;20104;-77
2021/08/24 09:29:34;;;;;;;1.50;1.30;;;20.40;94.20;;;;;;5036255;28;20034;-75
2021/08/24 09:32:06;;;;;;;1.52;1.42;;;20.40;94.20;;;;;;5017859;28;20022;-77
2021/08/24 09:34:36;;;;;;;2.00;1.52;;;20.50;94.30;;;;;;5018088;28;20060;-79
2021/08/24 09:37:03;;;;;;;2.42;1.65;;;20.50;94.30;;;;;;5036040;28;20026;-77
2021/08/24 09:40:06;;;;;;;1.85;1.75;;;20.60;94.20;;;;;;5035924;28;20033;-79
2021/08/24 09:42:42;;;;;;;1.40;1.30;;;20.70;94.20;;;;;;4975069;28;20027;-76
2021/08/24 09:45:25;;;;;;;1.08;1.02;;;20.80;94.20;;;;;;4974499;28;20063;-77
2021/08/24 09:48:00;;;;;;;1.60;1.50;;;21.00;94.20;;;;;;4975040;28;20113;-79
2021/08/24 09:50:34;;;;;;;2.05;1.65;;;21.20;94.10;;;;;;4974837;28;20039;-77
2021/08/24 09:53:01;;;;;;;1.60;1.50;;;21.20;94.00;;;;;;4975033;28;20034;-77
2021/08/24 09:55:30;;;;;;;1.65;1.55;;;21.20;94.00;;;;;;4974792;28;20531;-79
2021/08/24 09:57:59;;;;;;;1.85;1.58;;;21.10;94.00;;;;;;4974777;28;20045;-78
2021/08/24 10:00:52;;;;;;;1.50;1.40;;;21.10;94.00;;;;;;4974443;28;20383;-85
2021/08/24 10:03:32;;;;;;;1.70;1.60;;;21.20;94.00;;;;;;4975300;28;20558;-84
2021/08/24 10:06:22;;;;;;;2.33;1.60;;;21.20;94.10;;;;;;4976278;28;20034;-86
2021/08/24 10:08:54;;;;;;;1.70;1.60;;;21.30;94.10;;;;;;4975657;28;20031;-88
2021/08/24 10:11:32;;;;;;;1.80;1.48;;;21.30;94.10;;;;;;4959801;28;20023;-89
2021/08/24 10:14:23;;;;;;;1.55;1.40;;;21.30;94.10;;;;;;4975600;28;20031;-88
2021/08/24 10:16:50;;;;;;;1.90;1.70;;;21.30;94.00;;;;;;5015038;28;20033;-87
2021/08/24 10:19:21;;;;;;;1.50;1.35;;;21.20;94.00;;;;;;5036487;28;20030;-91
2021/08/24 10:21:57;;;;;;;1.85;1.40;;;21.40;94.10;;;;;;5036744;28;20463;-89
2021/08/24 10:24:35;;;;;;;1.50;1.40;;;21.50;94.00;;;;;;5036331;28;20430;-86
2021/08/24 10:27:07;;;;;;;1.55;1.45;;;21.70;93.90;;;;;;5036076;28;20029;-88
2021/08/24 10:29:37;;;;;;;1.70;1.60;;;21.80;93.90;;;;;;5036584;28;20433;-87
2021/08/24 10:32:06;;;;;;;1.50;1.40;;;22.00;93.80;;;;;;5018287;28;20021;-90
2021/08/24 10:34:34;;;;;;;1.08;1.08;;;22.10;93.70;;;;;;5018871;28;20116;-88
2021/08/24 10:37:46;;;;;;;1.50;1.40;;;22.30;93.70;;;;;;5036128;28;20033;-87
2021/08/24 10:40:11;;;;;;;1.35;1.25;;;22.30;93.60;;;;;;5008914;28;20088;-86
2021/08/24 10:42:40;;;;;;;1.52;1.27;;;22.40;93.60;;;;;;5018097;28;20025;-89
2021/08/24 10:45:18;;;;;;;;;;;22.60;93.60;;;;;;5035745;28;20026;-89
2021/08/24 10:47:53;;;;;;;1.30;1.20;;;22.60;93.90;;;;;;5015665;28;20416;-87
2021/08/24 10:50:22;;;;;;;1.13;1.02;;;22.70;93.50;;;;;;5014267;28;20026;-89
2021/08/24 10:52:57;;;;;;;1.05;1.05;;;22.60;93.50;;;;;;5015433;28;20044;-84
2021/08/24 10:55:30;;;;;;;1.42;1.33;;;22.50;93.50;;;;;;5013759;28;20025;-84
2021/08/24 10:58:13;;;;;;;1.30;1.20;;;22.50;93.90;;;;;;4993923;28;20025;-86
2021/08/24 11:00:38;;;;;;;0.90;0.90;;;22.60;93.50;;;;;;5013090;28;20057;-84
2021/08/24 11:03:16;;;;;;;1.05;0.98;;;22.70;93.60;;;;;;4995139;28;20077;-83
2021/08/24 11:05:52;;;;;;;0.85;0.85;;;22.80;93.60;;;;;;5012618;28;20045;-85
2021/08/24 11:08:47;;;;;;;0.93;0.90;;;22.80;93.50;;;;;;5012542;28;20029;-85
2021/08/24 11:11:21;;;;;;;0.80;0.80;;;22.90;93.50;;;;;;4969385;28;20039;-85
2021/08/24 11:13:58;;;;;;;1.25;1.15;;;23.00;93.50;;;;;;4972061;28;20042;-84
2021/08/24 11:16:52;;;;;;;1.00;0.88;;;23.10;93.30;;;;;;4973057;28;20070;-86
2021/08/24 11:19:39;;;;;;;1.02;0.90;;;23.10;93.40;;;;;;4957444;28;20174;-85
2021/08/24 11:22:18;;;;;;;1.48;1.00;;;23.20;93.50;;;;;;4974303;28;20050;-85
2021/08/24 11:24:57;;;;;;;1.02;0.90;;;23.10;93.50;;;;;;4957718;28;20125;-84
2021/08/24 11:27:54;;;;;;;0.95;0.95;;;23.10;93.50;;;;;;4973491;28;20165;-86
2021/08/24 11:30:31;;;;;;;0.82;0.82;;;23.00;93.40;;;;;;4973687;28;20043;-83
2021/08/24 11:33:04;;;;;;;0.98;0.85;;;22.90;93.60;;;;;;4973205;28;20082;-83
2021/08/24 11:35:44;;;;;;;1.10;0.98;;;22.90;93.80;;;;;;4973487;28;20043;-85
2021/08/24 11:38:15;;;;;;;0.82;0.82;;;22.90;93.70;;;;;;4973444;28;20022;-85
2021/08/24 11:41:06;;;;;;;0.90;0.90;;;22.90;93.70;;;;;;4973364;28;20407;-86
2021/08/24 11:43:45;;;;;;;0.82;0.70;;;22.90;93.70;;;;;;4973063;28;20032;-87
2021/08/24 11:46:25;;;;;;;1.10;1.00;;;23.00;93.60;;;;;;4973823;28;20476;-87
2021/08/24 11:49:01;;;;;;;0.50;0.50;;;23.20;93.50;;;;;;5007066;28;20495;-88
2021/08/24 11:51:32;;;;;;;0.50;0.50;;;23.40;93.30;;;;;;5014694;28;20084;-87
2021/08/24 11:54:13;;;;;;;0.57;0.57;;;23.60;92.90;;;;;;5014576;28;20030;-87
2021/08/24 11:57:06;;;;;;;0.70;0.70;;;23.80;92.70;;;;;;5015019;28;20026;-88
2021/08/24 11:59:46;;;;;;;0.50;0.50;;;23.80;92.60;;;;;;4997102;28;20018;-86
2021/08/24 12:02:15;;;;;;;0.80;0.80;;;23.90;92.60;;;;;;5014501;28;20136;-87
2021/08/24 12:04:41;;;;;;;0.80;0.70;;;23.90;92.70;;;;;;5014288;28;20022;-86
2021/08/24 12:07:12;;;;;;;0.85;0.65;;;24.00;92.70;;;;;;5014372;28;20026;-83
2021/08/24 12:09:45;;;;;;;1.30;1.05;;;24.20;92.80;;;;;;5014431;28;20030;-86
2021/08/24 12:12:38;;;;;;;0.73;0.73;;;24.40;92.80;;;;;;5014105;28;20117;-87
2021/08/24 12:15:15;;;;;;;0.75;0.60;;;24.70;92.70;;;;;;5014144;28;20038;-89
2021/08/24 12:17:40;;;;;;;0.60;0.60;;;24.90;92.60;;;;;;5014660;28;20037;-88
2021/08/24 12:20:13;;;;;;;0.73;0.73;;;25.10;92.60;;;;;;5013409;28;20108;-90
2021/08/24 12:22:54;;;;;;;0.75;0.75;;;25.10;92.70;;;;;;5014904;28;20113;-88
2021/08/24 12:25:34;;;;;;;1.17;0.98;;;25.20;92.80;;;;;;5014008;28;20025;-87
2021/08/24 12:28:03;;;;;;;0.90;0.70;;;25.30;93.00;;;;;;5014309;28;20057;-88
2021/08/24 12:30:36;;;;;;;0.77;0.75;;;25.60;93.00;;;;;;5014316;28;20455;-86
2021/08/24 12:33:26;;;;;;;0.70;0.70;;;25.90;92.90;;;;;;5014251;28;20018;-84
2021/08/24 12:35:51;;;;;;;0.85;0.73;;;26.30;92.80;;;;;;5014057;28;20089;-87
2021/08/24 12:38:46;;;;;;;0.70;0.68;;;26.60;92.60;;;;;;5014013;28;20490;-88
2021/08/24 12:41:31;;;;;;;0.80;0.80;;;26.80;92.60;;;;;;4991591;28;20478;-88
2021/08/24 12:44:25;;;;;;;1.10;0.95;;;26.90;92.50;;;;;;5013613;28;20053;-83
2021/08/24 12:47:11;;;;;;;2.13;1.45;;;26.70;92.20;;;;;;5028949;28;20369;-81
2021/08/24 12:49:37;;;;;;;0.68;0.68;;;26.30;92.30;;;;;;5013461;28;20037;-85
2021/08/24 12:52:27;;;;;;;0.80;0.80;;;25.80;92.70;;;;;;5013555;28;20022;-85
2021/08/24 12:55:02;;;;;;;1.00;0.95;;;25.70;93.00;;;;;;5013400;28;20048;-85
2021/08/24 12:57:32;;;;;;;1.13;1.02;;;25.90;93.10;;;;;;5014289;28;20390;-91
2021/08/24 13:00:22;;;;;;;1.05;0.95;;;26.10;92.90;;;;;;5017532;28;20512;-87
2021/08/24 13:02:54;;;;;;;1.00;0.90;;;26.30;92.80;;;;;;5014193;28;20104;-87
2021/08/24 13:05:26;;;;;;;1.10;1.00;;;26.50;92.80;;;;;;5014052;28;20112;-85
2021/08/24 13:07:57;;;;;;;1.35;1.25;;;26.80;92.80;;;;;;5013767;28;20509;-87
2021/08/24 13:10:32;;;;;;;0.85;0.85;;;26.80;92.10;;;;;;5012813;28;20018;-85